createdAt,value
2018-03-03T00:01:51.593Z,-2.11
2018-03-03T00:04:19.093Z,-2.33
2018-03-03T00:06:46.549Z,-2.15
2018-03-03T00:09:14.265Z,-1.98
2018-03-03T00:11:41.741Z,-2.08
2018-03-03T00:14:10.182Z,-2.14
2018-03-03T00:16:37.918Z,-2.03
2018-03-03T00:19:05.379Z,-1.72
2018-03-03T00:21:32.837Z,-2.00
2018-03-03T00:24:00.562Z,-1.96
2018-03-03T00:26:28.021Z,-2.15
2018-03-03T00:28:55.485Z,-1.97
2018-03-03T00:31:23.556Z,-1.71
2018-03-03T00:33:51.009Z,-1.86
2018-03-03T00:36:18.518Z,-1.72
2018-03-03T00:38:46.232Z,-2.08
2018-03-03T00:41:13.694Z,-1.84
2018-03-03T00:43:41.158Z,-1.77
2018-03-03T00:46:08.930Z,-1.88
2018-03-03T00:48:36.390Z,-1.84
2018-03-03T00:51:03.854Z,-1.99
2018-03-03T00:53:31.617Z,-1.91
2018-03-03T00:55:59.080Z,-1.84
2018-03-03T00:58:26.546Z,-2.19
2018-03-03T01:00:54.604Z,-1.96
2018-03-03T01:03:22.069Z,-2.30
2018-03-03T01:05:49.534Z,-2.06
2018-03-03T01:08:17.297Z,-2.35
2018-03-03T01:10:44.770Z,-2.67
2018-03-03T01:13:12.242Z,-2.15
2018-03-03T01:15:41.210Z,-2.31
2018-03-03T01:18:08.694Z,-2.24
2018-03-03T01:20:36.146Z,-2.47
2018-03-03T01:23:03.901Z,-2.20
2018-03-03T01:25:31.368Z,-2.04
2018-03-03T01:27:58.839Z,-2.26
2018-03-03T01:30:26.588Z,-2.31
2018-03-03T01:32:54.062Z,-2.14
2018-03-03T01:35:21.527Z,-2.05
2018-03-03T01:37:49.215Z,-1.93
2018-03-03T01:40:16.676Z,-1.87
2018-03-03T01:42:44.140Z,-1.84
2018-03-03T01:45:11.932Z,-2.17
2018-03-03T01:47:39.393Z,-2.42
2018-03-03T01:50:06.869Z,-2.23
2018-03-03T01:52:34.640Z,-2.00
2018-03-03T01:55:02.101Z,-2.07
2018-03-03T01:57:30.454Z,-2.11
2018-03-03T01:59:58.256Z,-2.14
2018-03-03T02:02:25.720Z,-2.11
2018-03-03T02:04:53.194Z,-2.30
2018-03-03T02:07:20.939Z,-2.14
2018-03-03T02:09:48.409Z,-2.22
2018-03-03T02:12:15.873Z,-2.23
2018-03-03T02:14:43.610Z,-2.02
2018-03-03T02:17:12.092Z,-2.48
2018-03-03T02:19:39.567Z,-2.21
2018-03-03T02:22:07.548Z,-2.05
2018-03-03T02:24:35.030Z,-2.11
2018-03-03T02:27:02.489Z,-2.23
2018-03-03T02:29:30.235Z,-2.22
2018-03-03T02:31:57.702Z,-2.27
2018-03-03T02:34:25.159Z,-2.21
2018-03-03T02:36:53.502Z,-2.50
2018-03-03T02:39:20.961Z,-2.47
2018-03-03T02:41:48.429Z,-2.11
2018-03-03T02:44:16.231Z,-2.13
2018-03-03T02:46:43.708Z,-1.99
2018-03-03T02:49:11.188Z,-2.08
2018-03-03T02:51:38.905Z,-2.10
2018-03-03T02:54:06.373Z,-2.37
2018-03-03T02:56:33.837Z,-2.28
2018-03-03T02:59:01.909Z,-2.48
2018-03-03T03:01:29.380Z,-2.37
2018-03-03T03:03:56.840Z,-2.37
2018-03-03T03:06:24.595Z,-2.52
2018-03-03T03:08:52.061Z,-2.32
2018-03-03T03:11:19.533Z,-2.52
2018-03-03T03:13:47.283Z,-2.62
2018-03-03T03:16:14.756Z,-2.49
2018-03-03T03:18:42.851Z,-2.56
2018-03-03T03:21:10.603Z,-2.50
2018-03-03T03:23:38.074Z,-2.27
2018-03-03T03:26:05.552Z,-2.32
2018-03-03T03:28:33.582Z,-2.62
2018-03-03T03:31:01.045Z,-2.70
2018-03-03T03:33:28.510Z,-2.76
2018-03-03T03:35:56.260Z,-2.73
2018-03-03T03:38:23.774Z,-2.68
2018-03-03T03:40:51.246Z,-2.54
2018-03-03T03:43:19.206Z,-2.28
2018-03-03T03:45:46.680Z,-2.24
2018-03-03T03:48:14.159Z,-2.59
2018-03-03T03:50:41.939Z,-2.43
2018-03-03T03:53:09.733Z,-2.33
2018-03-03T03:55:37.205Z,-2.24
2018-03-03T03:58:04.943Z,-2.33
2018-03-03T04:00:32.421Z,-2.38
2018-03-03T04:02:59.886Z,-2.23
2018-03-03T04:05:27.633Z,-2.31
2018-03-03T04:07:55.096Z,-2.38
2018-03-03T04:10:22.558Z,-2.43
2018-03-03T04:12:50.313Z,-2.40
2018-03-03T04:15:17.781Z,-2.60
2018-03-03T04:17:45.254Z,-2.46
2018-03-03T04:20:13.916Z,-2.52
2018-03-03T04:22:41.379Z,-2.57
2018-03-03T04:25:08.848Z,-2.45
2018-03-03T04:27:36.616Z,-2.35
2018-03-03T04:30:04.076Z,-2.50
2018-03-03T04:32:31.553Z,-2.40
2018-03-03T04:34:59.153Z,-2.31
2018-03-03T04:37:26.626Z,-2.28
2018-03-03T04:39:54.097Z,-2.39
2018-03-03T04:42:21.973Z,-2.35
2018-03-03T04:44:49.445Z,-2.48
2018-03-03T04:47:16.912Z,-2.26
2018-03-03T04:49:44.678Z,-2.43
2018-03-03T04:52:12.137Z,-2.26
2018-03-03T04:54:39.598Z,-2.46
2018-03-03T04:57:07.357Z,-2.28
2018-03-03T05:02:55.546Z,-2.87
2018-03-03T05:05:33.777Z,-2.74
2018-03-03T05:08:04.173Z,-2.54
2018-03-03T05:10:31.638Z,-2.80
2018-03-03T05:16:04.517Z,-2.88
2018-03-03T05:18:37.946Z,-3.18
2018-03-03T05:24:29.077Z,-2.81
2018-03-03T05:27:02.029Z,-2.80
2018-03-03T05:32:47.848Z,-2.77
2018-03-03T05:35:22.190Z,-2.83
2018-03-03T05:40:52.948Z,-3.02
2018-03-03T05:43:25.793Z,-2.76
2018-03-03T05:46:09.799Z,-2.76
2018-03-03T05:48:47.985Z,-2.74
2018-03-03T05:51:21.609Z,-2.44
2018-03-03T05:53:54.577Z,-2.15
2018-03-03T05:56:27.848Z,-2.49
2018-03-03T06:02:06.134Z,-2.23
2018-03-03T06:04:48.480Z,-2.37
2018-03-03T06:10:18.973Z,-2.59
2018-03-03T06:12:46.693Z,-2.74
2018-03-03T06:15:14.169Z,-2.54
2018-03-03T06:17:41.633Z,-2.38
2018-03-03T06:20:09.650Z,-2.57
2018-03-03T06:22:38.137Z,-2.20
2018-03-03T06:25:05.598Z,-2.36
2018-03-03T06:27:33.268Z,-2.21
2018-03-03T06:30:00.722Z,-1.96
2018-03-03T06:32:28.202Z,-2.10
2018-03-03T06:34:55.944Z,-1.92
2018-03-03T06:37:23.404Z,-1.91
2018-03-03T06:39:50.881Z,-1.83
2018-03-03T06:42:18.637Z,-1.66
2018-03-03T06:44:46.092Z,-1.54
2018-03-03T06:47:13.552Z,-1.49
2018-03-03T06:49:41.321Z,-1.71
2018-03-03T06:52:08.798Z,-1.38
2018-03-03T06:54:36.261Z,-1.95
2018-03-03T06:57:04.021Z,-1.77
2018-03-03T06:59:31.481Z,-1.46
2018-03-03T07:01:58.941Z,-1.29
2018-03-03T07:04:26.717Z,-1.52
2018-03-03T07:06:54.181Z,-1.63
2018-03-03T07:09:21.645Z,-1.66
2018-03-03T07:11:49.398Z,-1.80
2018-03-03T07:14:18.226Z,-1.46
2018-03-03T07:16:45.698Z,-1.45
2018-03-03T07:19:13.616Z,-1.32
2018-03-03T07:21:41.084Z,-1.12
2018-03-03T07:24:10.213Z,-0.79
2018-03-03T07:26:37.889Z,-1.08
2018-03-03T07:29:05.347Z,-0.65
2018-03-03T07:31:32.817Z,-1.28
2018-03-03T07:34:01.159Z,-1.33
2018-03-03T07:36:28.621Z,-1.17
2018-03-03T07:38:56.096Z,-0.60
2018-03-03T07:41:23.896Z,-0.38
2018-03-03T07:43:51.366Z,-0.39
2018-03-03T07:46:18.821Z,-0.43
2018-03-03T07:48:46.505Z,-0.42
2018-03-03T07:51:13.984Z,-0.86
2018-03-03T07:53:41.456Z,-0.67
2018-03-03T07:56:09.188Z,-0.05
2018-03-03T07:58:48.619Z,0.06
2018-03-03T08:01:16.412Z,-0.44
2018-03-03T08:03:43.872Z,-0.20
2018-03-03T08:06:11.329Z,-0.09
2018-03-03T08:08:39.419Z,0.06
2018-03-03T08:11:06.885Z,-0.33
2018-03-03T08:13:34.352Z,-0.45
2018-03-03T08:16:01.984Z,-0.39
2018-03-03T08:18:29.731Z,-0.72
2018-03-03T08:20:57.199Z,-0.79
2018-03-03T08:23:25.698Z,0.18
2018-03-03T08:25:53.549Z,0.18
2018-03-03T08:28:21.028Z,0.95
2018-03-03T08:30:48.989Z,0.74
2018-03-03T08:33:16.445Z,1.04
2018-03-03T08:35:43.893Z,0.47
2018-03-03T08:38:11.768Z,0.66
2018-03-03T08:40:39.229Z,1.31
2018-03-03T08:43:06.686Z,0.85
2018-03-03T08:45:34.425Z,0.82
2018-03-03T08:48:01.877Z,0.69
2018-03-03T08:50:29.345Z,1.72
2018-03-03T08:52:57.370Z,1.03
2018-03-03T08:55:24.825Z,1.10
2018-03-03T08:57:52.295Z,0.37
2018-03-03T09:00:19.949Z,0.61
2018-03-03T09:02:47.414Z,0.10
2018-03-03T09:05:14.873Z,0.31
2018-03-03T09:07:42.550Z,0.76
2018-03-03T09:10:10.009Z,0.94
2018-03-03T09:12:37.461Z,1.67
2018-03-03T09:15:05.175Z,1.83
2018-03-03T09:17:32.629Z,1.28
2018-03-03T09:20:00.359Z,1.54
2018-03-03T09:22:28.113Z,1.83
2018-03-03T09:24:55.616Z,1.45
2018-03-03T09:27:23.109Z,2.07
2018-03-03T09:29:51.101Z,1.47
2018-03-03T09:32:18.549Z,1.69
2018-03-03T09:34:45.999Z,0.54
2018-03-03T09:37:14.098Z,0.56
2018-03-03T09:39:41.548Z,1.61
2018-03-03T09:42:09.008Z,1.53
2018-03-03T09:44:36.788Z,1.08
2018-03-03T09:47:04.241Z,0.98
2018-03-03T09:49:31.754Z,1.20
2018-03-03T09:51:59.480Z,1.92
2018-03-03T09:54:26.951Z,2.26
2018-03-03T09:56:54.409Z,1.32
2018-03-03T09:59:22.341Z,1.60
2018-03-03T10:01:52.333Z,2.28
2018-03-03T10:04:17.263Z,1.98
2018-03-03T10:06:45.155Z,1.86
2018-03-03T10:09:12.602Z,2.52
2018-03-03T10:11:40.054Z,1.85
2018-03-03T10:14:07.801Z,2.33
2018-03-03T10:16:35.254Z,2.36
2018-03-03T10:19:02.709Z,1.59
2018-03-03T10:21:30.545Z,2.74
2018-03-03T10:23:57.992Z,2.50
2018-03-03T10:26:25.479Z,3.20
2018-03-03T10:28:53.581Z,2.21
2018-03-03T10:31:21.034Z,2.20
2018-03-03T10:33:48.490Z,2.88
2018-03-03T10:36:16.209Z,3.13
2018-03-03T10:38:43.656Z,2.91
2018-03-03T10:41:11.114Z,3.30
2018-03-03T10:43:38.689Z,1.92
2018-03-03T10:46:06.161Z,2.54
2018-03-03T10:48:33.617Z,3.07
2018-03-03T10:51:01.596Z,2.15
2018-03-03T10:53:29.050Z,2.89
2018-03-03T10:55:56.501Z,2.12
2018-03-03T10:58:24.587Z,2.75
2018-03-03T11:00:52.049Z,3.29
2018-03-03T11:03:19.505Z,2.50
2018-03-03T11:05:47.218Z,2.65
2018-03-03T11:08:14.675Z,3.05
2018-03-03T11:10:42.149Z,2.89
2018-03-03T11:13:09.953Z,3.36
2018-03-03T11:15:37.403Z,3.76
2018-03-03T11:18:04.853Z,4.02
2018-03-03T11:20:32.965Z,3.73
2018-03-03T11:23:00.421Z,3.86
2018-03-03T11:25:27.880Z,4.28
2018-03-03T11:27:55.626Z,4.37
2018-03-03T11:30:24.306Z,3.34
2018-03-03T11:32:51.773Z,2.99
2018-03-03T11:35:19.853Z,3.25
2018-03-03T11:37:47.310Z,4.06
2018-03-03T11:40:14.755Z,4.17
2018-03-03T11:42:42.542Z,5.20
2018-03-03T11:45:09.998Z,4.19
2018-03-03T11:47:37.455Z,4.95
2018-03-03T11:50:05.545Z,4.11
2018-03-03T11:52:33.007Z,4.84
2018-03-03T11:55:00.472Z,5.78
2018-03-03T11:57:28.212Z,4.62
2018-03-03T11:59:55.968Z,7.17
2018-03-03T12:02:23.451Z,6.27
2018-03-03T12:04:51.222Z,3.93
2018-03-03T12:07:18.672Z,5.74
2018-03-03T12:09:46.135Z,4.18
2018-03-03T12:12:13.933Z,4.48
2018-03-03T12:14:41.392Z,4.86
2018-03-03T12:17:08.857Z,4.82
2018-03-03T12:19:36.592Z,3.44
2018-03-03T12:22:04.044Z,4.30
2018-03-03T12:24:31.497Z,4.85
2018-03-03T12:26:59.278Z,3.81
2018-03-03T12:29:26.728Z,4.24
2018-03-03T12:31:54.775Z,6.46
2018-03-03T12:34:22.890Z,6.59
2018-03-03T12:36:50.341Z,6.96
2018-03-03T12:39:17.816Z,6.35
2018-03-03T12:41:45.584Z,7.50
2018-03-03T12:44:13.044Z,7.91
2018-03-03T12:46:40.500Z,9.60
2018-03-03T12:49:08.607Z,7.67
2018-03-03T12:51:36.050Z,6.58
2018-03-03T12:54:03.519Z,6.94
2018-03-03T12:56:31.269Z,8.10
2018-03-03T12:58:58.725Z,6.83
2018-03-03T13:01:26.186Z,6.36
2018-03-03T13:03:53.942Z,8.35
2018-03-03T13:06:21.392Z,7.89
2018-03-03T13:08:48.840Z,8.43
2018-03-03T13:11:16.629Z,6.86
2018-03-03T13:13:44.090Z,8.11
2018-03-03T13:16:11.537Z,6.30
2018-03-03T13:18:39.317Z,6.55
2018-03-03T13:21:06.772Z,6.18
2018-03-03T13:23:34.229Z,4.67
2018-03-03T13:26:02.277Z,5.44
2018-03-03T13:28:29.723Z,6.78
2018-03-03T13:30:57.175Z,5.13
2018-03-03T13:33:25.605Z,4.76
2018-03-03T13:35:53.059Z,5.09
2018-03-03T13:38:20.519Z,5.17
2018-03-03T13:40:48.588Z,5.99
2018-03-03T13:43:16.039Z,5.21
2018-03-03T13:45:43.492Z,5.07
2018-03-03T13:48:11.327Z,4.24
2018-03-03T13:50:38.771Z,4.87
2018-03-03T13:53:06.253Z,4.50
2018-03-03T13:55:33.965Z,4.45
2018-03-03T13:58:01.421Z,4.07
2018-03-03T14:00:28.882Z,4.50
2018-03-03T14:02:56.665Z,3.78
2018-03-03T14:05:24.127Z,3.79
2018-03-03T14:07:51.576Z,3.56
2018-03-03T14:10:19.345Z,4.01
2018-03-03T14:12:46.804Z,3.71
2018-03-03T14:15:14.258Z,3.74
2018-03-03T14:17:42.062Z,3.68
2018-03-03T14:20:09.541Z,3.53
2018-03-03T14:22:37.000Z,3.50
2018-03-03T14:25:05.047Z,3.18
2018-03-03T14:27:32.558Z,3.69
2018-03-03T14:30:00.023Z,3.89
2018-03-03T14:32:28.020Z,3.39
2018-03-03T14:34:58.322Z,3.67
2018-03-03T14:37:25.777Z,3.44
2018-03-03T14:39:53.797Z,3.38
2018-03-03T14:42:21.262Z,3.26
2018-03-03T14:44:48.715Z,3.62
2018-03-03T14:47:16.461Z,2.57
2018-03-03T14:49:43.915Z,2.82
2018-03-03T14:52:11.380Z,2.96
2018-03-03T14:54:39.783Z,2.60
2018-03-03T14:57:07.237Z,3.39
2018-03-03T14:59:34.695Z,3.29
2018-03-03T15:02:02.548Z,3.42
2018-03-03T15:04:30.015Z,3.00
2018-03-03T15:06:57.474Z,2.52
2018-03-03T15:09:25.148Z,2.38
2018-03-03T15:11:52.597Z,2.25
2018-03-03T15:14:20.051Z,2.02
2018-03-03T15:16:47.839Z,2.41
2018-03-03T15:19:15.300Z,2.07
2018-03-03T15:21:42.746Z,2.23
2018-03-03T15:24:10.693Z,2.34
2018-03-03T15:26:38.157Z,2.03
2018-03-03T15:29:05.756Z,1.62
2018-03-03T15:31:33.842Z,1.90
2018-03-03T15:34:01.301Z,1.73
2018-03-03T15:36:29.756Z,1.51
2018-03-03T15:38:57.630Z,1.78
2018-03-03T15:41:25.082Z,1.24
2018-03-03T15:43:52.548Z,1.77
2018-03-03T15:46:20.308Z,1.77
2018-03-03T15:48:47.765Z,1.76
2018-03-03T15:51:15.229Z,1.81
2018-03-03T15:53:43.125Z,1.58
2018-03-03T15:56:10.586Z,1.49
2018-03-03T15:58:38.043Z,1.30
2018-03-03T16:01:05.804Z,1.55
2018-03-03T16:03:33.254Z,1.21
2018-03-03T16:06:00.707Z,1.63
2018-03-03T16:08:28.491Z,1.06
2018-03-03T16:10:55.951Z,1.28
2018-03-03T16:13:23.405Z,1.09
2018-03-03T16:15:51.180Z,1.10
2018-03-03T16:18:18.637Z,1.04
2018-03-03T16:20:46.177Z,1.03
2018-03-03T16:23:13.904Z,0.74
2018-03-03T16:25:41.356Z,0.96
2018-03-03T16:28:09.616Z,1.06
2018-03-03T16:30:37.475Z,0.95
2018-03-03T16:33:04.987Z,0.74
2018-03-03T16:35:32.452Z,0.54
2018-03-03T16:38:01.150Z,0.80
2018-03-03T16:40:28.601Z,0.85
2018-03-03T16:42:56.058Z,0.64
2018-03-03T16:45:23.781Z,0.51
2018-03-03T16:47:51.228Z,0.40
2018-03-03T16:50:18.678Z,0.77
2018-03-03T16:52:46.453Z,0.43
2018-03-03T16:55:13.910Z,0.52
2018-03-03T16:57:41.361Z,0.25
2018-03-03T17:00:09.024Z,0.42
2018-03-03T17:02:36.477Z,0.53
2018-03-03T17:05:03.928Z,0.51
2018-03-03T17:07:31.842Z,0.35
2018-03-03T17:09:59.303Z,0.10
2018-03-03T17:12:26.757Z,-0.04
2018-03-03T17:14:54.512Z,0.21
2018-03-03T17:17:21.961Z,0.06
2018-03-03T17:19:49.418Z,0.19
2018-03-03T17:22:17.285Z,0.07
2018-03-03T17:24:44.746Z,-0.12
2018-03-03T17:27:12.204Z,-0.07
2018-03-03T17:29:39.947Z,-0.06
2018-03-03T17:32:07.409Z,-0.17
2018-03-03T17:34:34.872Z,-0.30
2018-03-03T17:37:02.650Z,-0.07
2018-03-03T17:39:30.544Z,-0.15
2018-03-03T17:41:58.002Z,-0.27
2018-03-03T17:44:25.706Z,-0.08
2018-03-03T17:46:53.170Z,-0.07
2018-03-03T17:49:20.635Z,0.05
2018-03-03T17:51:48.794Z,-0.01
2018-03-03T17:54:16.300Z,0.06
2018-03-03T17:56:43.861Z,-0.09
2018-03-03T17:59:11.615Z,-0.05
2018-03-03T18:01:39.089Z,-0.15
2018-03-03T18:04:06.843Z,0.18
2018-03-03T18:06:35.198Z,0.16
2018-03-03T18:09:02.669Z,0.15
2018-03-03T18:11:30.124Z,0.07
2018-03-03T18:13:57.864Z,0.28
2018-03-03T18:16:25.587Z,0.08
2018-03-03T18:25:36.774Z,0.19
2018-03-03T18:28:04.562Z,0.02
2018-03-03T18:30:32.042Z,0.22
2018-03-03T18:33:00.093Z,0.24
2018-03-03T18:35:27.820Z,0.21
2018-03-03T18:37:55.275Z,0.14
2018-03-03T18:40:24.872Z,0.15
2018-03-03T18:42:52.425Z,-0.01
2018-03-03T18:45:20.176Z,0.12
2018-03-03T18:47:48.228Z,0.09
2018-03-03T18:50:15.687Z,0.24
2018-03-03T18:52:43.144Z,0.09
2018-03-03T18:55:10.903Z,0.14
2018-03-03T18:57:38.478Z,0.12
2018-03-03T19:00:05.962Z,0.28
2018-03-03T19:02:33.932Z,0.21
2018-03-03T19:05:01.433Z,0.36
2018-03-03T19:07:28.895Z,0.13
2018-03-03T19:09:57.033Z,0.13
2018-03-03T19:12:24.494Z,0.20
2018-03-03T19:14:51.962Z,0.27
2018-03-03T19:17:19.741Z,0.19
2018-03-03T19:19:47.216Z,0.36
2018-03-03T19:22:14.667Z,0.08
2018-03-03T19:24:42.326Z,0.17
2018-03-03T19:27:09.793Z,0.16
2018-03-03T19:29:37.256Z,0.18
2018-03-03T19:32:04.942Z,0.17
2018-03-03T19:34:32.448Z,0.25
2018-03-03T19:36:59.921Z,0.19
2018-03-03T19:39:28.324Z,0.27
2018-03-03T19:41:56.738Z,0.27
2018-03-03T19:44:24.421Z,0.14
2018-03-03T19:46:52.181Z,-0.07
2018-03-03T19:49:19.631Z,0.09
2018-03-03T19:51:47.720Z,0.00
2018-03-03T19:54:15.883Z,0.02
2018-03-03T19:56:43.388Z,0.08
2018-03-03T19:59:10.845Z,0.03
2018-03-03T20:01:38.649Z,-0.12
2018-03-03T20:04:06.589Z,-0.07
2018-03-03T20:06:34.078Z,0.37
2018-03-03T20:09:01.877Z,-0.16
2018-03-03T20:11:29.327Z,-0.28
2018-03-03T20:13:57.120Z,-0.34
2018-03-03T20:16:25.076Z,-0.35
2018-03-03T20:18:52.886Z,-0.36
2018-03-03T20:21:20.349Z,-0.38
2018-03-03T20:23:48.707Z,-0.39
2018-03-03T20:26:16.264Z,-0.36
2018-03-03T20:28:43.771Z,-0.70
2018-03-03T20:31:11.673Z,-0.48
2018-03-03T20:33:39.419Z,-0.35
2018-03-03T20:36:06.938Z,-0.42
2018-03-03T20:38:34.668Z,-0.22
2018-03-03T20:41:02.136Z,-0.25
2018-03-03T20:43:30.661Z,-0.25
2018-03-03T20:45:58.961Z,-0.34
2018-03-03T20:48:26.464Z,-0.23
2018-03-03T20:50:53.929Z,-0.31
2018-03-03T20:53:21.864Z,-0.31
2018-03-03T20:55:50.013Z,-0.26
2018-03-03T20:58:17.489Z,-0.23
2018-03-03T21:00:45.184Z,-0.26
2018-03-03T21:03:12.658Z,-0.24
2018-03-03T21:05:40.489Z,-0.17
2018-03-03T21:08:08.476Z,0.27
2018-03-03T21:10:35.927Z,0.39
2018-03-03T21:13:03.417Z,-0.11
2018-03-03T21:15:31.276Z,-0.07
2018-03-03T21:17:58.743Z,0.24
2018-03-03T21:20:26.193Z,0.03
2018-03-03T21:22:54.160Z,0.01
2018-03-03T21:25:21.627Z,-0.04
2018-03-03T21:27:49.086Z,-0.14
2018-03-03T21:30:16.860Z,-0.13
2018-03-03T21:32:44.326Z,-0.25
2018-03-03T21:35:11.783Z,0.13
2018-03-03T21:37:39.844Z,0.08
2018-03-03T21:40:07.304Z,-0.04
2018-03-03T21:42:34.775Z,0.11
2018-03-03T21:45:03.137Z,0.19
2018-03-03T21:47:30.584Z,0.20
2018-03-03T21:49:58.047Z,0.33
2018-03-03T21:52:25.830Z,0.10
2018-03-03T21:54:53.289Z,-0.01
2018-03-03T21:57:20.743Z,0.05
2018-03-03T21:59:49.125Z,0.04
2018-03-03T22:02:16.600Z,0.00
2018-03-03T22:04:44.058Z,-0.18
2018-03-03T22:07:11.777Z,-0.31
2018-03-03T22:09:39.267Z,-0.22
2018-03-03T22:12:06.733Z,-0.36
2018-03-03T22:14:34.806Z,-0.28
2018-03-03T22:17:02.274Z,-0.16
2018-03-03T22:19:29.725Z,-0.25
2018-03-03T22:21:57.501Z,-0.08
2018-03-03T22:24:24.965Z,-0.17
2018-03-03T22:26:52.424Z,-0.12
2018-03-03T22:29:20.189Z,-0.08
2018-03-03T22:31:47.667Z,-0.13
2018-03-03T22:34:15.132Z,-0.07
2018-03-03T22:36:42.873Z,-0.14
2018-03-03T22:39:10.337Z,-0.18
2018-03-03T22:41:38.104Z,-0.21
2018-03-03T22:44:05.930Z,-0.14
2018-03-03T22:46:34.001Z,-0.10
2018-03-03T22:49:01.461Z,-0.12
2018-03-03T22:51:29.480Z,-0.18
2018-03-03T22:53:56.980Z,-0.19
2018-03-03T22:56:24.440Z,-0.22
2018-03-03T22:58:52.465Z,-0.19
2018-03-03T23:01:19.935Z,-0.01
2018-03-03T23:03:47.393Z,-0.11
2018-03-03T23:06:15.162Z,-0.08
2018-03-03T23:08:42.621Z,-0.14
2018-03-03T23:11:10.096Z,-0.05
2018-03-03T23:13:38.077Z,-0.16
2018-03-03T23:16:05.534Z,-0.28
2018-03-03T23:18:32.988Z,-0.33
2018-03-03T23:21:00.844Z,-0.45
2018-03-03T23:23:28.306Z,-0.49
2018-03-03T23:25:55.764Z,-0.56
2018-03-03T23:28:23.561Z,-0.54
2018-03-03T23:30:51.040Z,-0.59
2018-03-03T23:33:18.515Z,-0.65
2018-03-03T23:35:46.528Z,-0.52
2018-03-03T23:38:13.980Z,-0.54
2018-03-03T23:40:41.441Z,-0.59
2018-03-03T23:43:09.228Z,-0.65
2018-03-03T23:45:36.689Z,-0.68
2018-03-03T23:48:04.508Z,-0.80
2018-03-03T23:50:32.260Z,-0.91
2018-03-03T23:52:59.726Z,-0.81
2018-03-03T23:55:27.191Z,-0.88
2018-03-03T23:57:55.184Z,-0.81
